Pagina principale
METAR-TAF:

METAR-TAF

Aeroporti :

Batajnica, Serbia

latitudine: 44-56-07N, longitudine: 020-15-27E, altezza: 86 m

Osservazione

Il bollettino è stato emesso 23 minuti fa, alle 19:00 UTC
Vento 4 kt da ovest
Temperature 14°C
Umidità 72%
Pressione 1019 hPa
Visibilità 10 km o più
nessuna nube inferiore a 1500 m e nessun cumulonembo

METAR: LYBT 231900Z 27004KT CAVOK 14/09 Q1019 NOSIG

Ora: 21:23 (19:23 UTC)

Previsione

Il bollettino è stato emesso 2 ore e 23 minuti fa, alle 17:00 UTC
Previsione valida dal 23 alle 18 UTC al 24 alle 18 UTC
Vento 6 kt da ovest
Visibilità 10 km o più
nessuna nube inferiore a 1500 m e nessun cumulonembo

TAF: LYBT 231700Z 2318/2418 28006KT CAVOK TX22/2413Z TN10/2403Z

Osservazioni e previsioni meteorologiche di più di 4000 aeroporti (messaggi METAR e TAF).

Le stazioni disponibili sono rappresentate dai dischi gialli e rossi sulla carta.

Puntare il mouse per vedere il nome della stazione.

Clicca sopra per visualizzare le osservazioni e previsioni meteorologiche.

Per cambiare la mappa : fare clic sui pulsanti verdi con una croce nera per ingrandire, il pulsante verde con un trattino per diminuire, o sulla freccia verde per le mappe adiacenti.


METAR-TAF: